sensor_id;sensor_type;location;lat;lon;timestamp;pressure;altitude;pressure_sealevel;temperature;humidity
20624;BME280;10471;42.736;23.346;2022-10-13T00:00:22;96310.03;;;8.72;100.00
20624;BME280;10471;42.736;23.346;2022-10-13T00:02:48;96307.66;;;8.71;100.00
20624;BME280;10471;42.736;23.346;2022-10-13T00:05:13;96305.50;;;8.68;100.00
20624;BME280;10471;42.736;23.346;2022-10-13T00:07:38;96308.13;;;8.68;100.00
20624;BME280;10471;42.736;23.346;2022-10-13T00:10:04;96312.25;;;8.64;100.00
20624;BME280;10471;42.736;23.346;2022-10-13T00:12:33;96304.94;;;8.66;100.00
20624;BME280;10471;42.736;23.346;2022-10-13T00:14:59;96311.22;;;8.65;100.00
20624;BME280;10471;42.736;23.346;2022-10-13T00:17:24;96306.72;;;8.60;100.00
20624;BME280;10471;42.736;23.346;2022-10-13T00:19:49;96303.19;;;8.55;100.00
20624;BME280;10471;42.736;23.346;2022-10-13T00:22:15;96305.25;;;8.53;100.00
20624;BME280;10471;42.736;23.346;2022-10-13T00:24:40;96301.28;;;8.50;100.00
20624;BME280;10471;42.736;23.346;2022-10-13T00:27:06;96295.72;;;8.47;100.00
20624;BME280;10471;42.736;23.346;2022-10-13T00:29:31;96287.53;;;8.44;100.00
20624;BME280;10471;42.736;23.346;2022-10-13T00:31:56;96300.66;;;8.44;100.00
20624;BME280;10471;42.736;23.346;2022-10-13T00:34:22;96295.06;;;8.40;100.00
20624;BME280;10471;42.736;23.346;2022-10-13T00:36:47;96288.78;;;8.41;100.00
20624;BME280;10471;42.736;23.346;2022-10-13T00:39:12;96293.97;;;8.36;100.00
20624;BME280;10471;42.736;23.346;2022-10-13T00:41:38;96283.47;;;8.36;100.00
20624;BME280;10471;42.736;23.346;2022-10-13T00:44:04;96281.88;;;8.35;100.00
20624;BME280;10471;42.736;23.346;2022-10-13T00:46:35;96281.88;;;8.35;100.00
20624;BME280;10471;42.736;23.346;2022-10-13T00:49:12;96278.66;;;8.33;100.00
20624;BME280;10471;42.736;23.346;2022-10-13T00:51:40;96285.19;;;8.31;100.00
20624;BME280;10471;42.736;23.346;2022-10-13T00:54:08;96281.78;;;8.30;100.00
20624;BME280;10471;42.736;23.346;2022-10-13T00:56:35;96275.97;;;8.28;100.00
20624;BME280;10471;42.736;23.346;2022-10-13T00:59:02;96279.16;;;8.30;100.00
20624;BME280;10471;42.736;23.346;2022-10-13T01:01:29;96285.19;;;8.31;100.00
20624;BME280;10471;42.736;23.346;2022-10-13T01:03:55;96271.84;;;8.32;100.00
20624;BME280;10471;42.736;23.346;2022-10-13T01:06:20;96270.47;;;8.30;100.00
20624;BME280;10471;42.736;23.346;2022-10-13T01:08:46;96278.22;;;8.36;100.00
20624;BME280;10471;42.736;23.346;2022-10-13T01:11:37;96271.53;;;8.29;100.00
20624;BME280;10471;42.736;23.346;2022-10-13T01:14:31;96272.81;;;8.26;100.00
20624;BME280;10471;42.736;23.346;2022-10-13T01:17:29;96278.50;;;8.23;100.00
20624;BME280;10471;42.736;23.346;2022-10-13T01:33:55;96281.25;;;8.00;100.00
20624;BME280;10471;42.736;23.346;2022-10-13T01:36:46;96273.84;;;7.97;100.00
20624;BME280;10471;42.736;23.346;2022-10-13T01:39:25;96275.09;;;7.95;100.00
20624;BME280;10471;42.736;23.346;2022-10-13T01:41:58;96277.97;;;7.93;100.00
20624;BME280;10471;42.736;23.346;2022-10-13T01:44:30;96273.84;;;7.97;100.00
20624;BME280;10471;42.736;23.346;2022-10-13T01:46:59;96276.22;;;7.99;100.00
20624;BME280;10471;42.736;23.346;2022-10-13T01:49:32;96283.31;;;7.98;100.00
20624;BME280;10471;42.736;23.346;2022-10-13T01:52:12;96283.56;;;7.97;100.00
20624;BME280;10471;42.736;23.346;2022-10-13T01:54:39;96280.69;;;7.98;100.00
20624;BME280;10471;42.736;23.346;2022-10-13T02:00:01;96272.81;;;7.98;100.00
20624;BME280;10471;42.736;23.346;2022-10-13T02:02:36;96272.25;;;7.96;100.00
20624;BME280;10471;42.736;23.346;2022-10-13T02:08:09;96279.09;;;7.97;100.00
20624;BME280;10471;42.736;23.346;2022-10-13T02:11:25;96279.91;;;7.98;100.00
20624;BME280;10471;42.736;23.346;2022-10-13T02:13:33;96274.78;;;7.91;100.00
20624;BME280;10471;42.736;23.346;2022-10-13T02:16:01;96268.66;;;7.86;100.00
20624;BME280;10471;42.736;23.346;2022-10-13T02:18:31;96272.63;;;7.88;100.00
20624;BME280;10471;42.736;23.346;2022-10-13T02:20:58;96273.47;;;7.78;100.00
20624;BME280;10471;42.736;23.346;2022-10-13T02:23:24;96268.06;;;7.68;100.00
20624;BME280;10471;42.736;23.346;2022-10-13T02:25:50;96269.91;;;7.56;100.00
20624;BME280;10471;42.736;23.346;2022-10-13T02:28:16;96264.59;;;7.51;100.00
20624;BME280;10471;42.736;23.346;2022-10-13T02:30:44;96260.34;;;7.50;100.00
20624;BME280;10471;42.736;23.346;2022-10-13T02:33:11;96261.78;;;7.41;100.00
20624;BME280;10471;42.736;23.346;2022-10-13T02:35:37;96254.47;;;7.43;100.00
20624;BME280;10471;42.736;23.346;2022-10-13T02:38:03;96252.63;;;7.43;100.00
20624;BME280;10471;42.736;23.346;2022-10-13T02:40:28;96253.31;;;7.39;100.00
20624;BME280;10471;42.736;23.346;2022-10-13T02:42:54;96250.41;;;7.35;100.00
20624;BME280;10471;42.736;23.346;2022-10-13T02:45:20;96249.13;;;7.38;100.00
20624;BME280;10471;42.736;23.346;2022-10-13T02:47:45;96254.72;;;7.41;100.00
20624;BME280;10471;42.736;23.346;2022-10-13T02:50:11;96256.38;;;7.47;100.00
20624;BME280;10471;42.736;23.346;2022-10-13T02:52:36;96238.84;;;7.48;100.00
20624;BME280;10471;42.736;23.346;2022-10-13T02:55:02;96249.78;;;7.45;100.00
20624;BME280;10471;42.736;23.346;2022-10-13T02:57:28;96238.66;;;7.38;100.00
20624;BME280;10471;42.736;23.346;2022-10-13T02:59:53;96243.91;;;7.38;100.00
20624;BME280;10471;42.736;23.346;2022-10-13T03:02:19;96240.22;;;7.39;100.00
20624;BME280;10471;42.736;23.346;2022-10-13T03:04:44;96238.66;;;7.38;100.00
20624;BME280;10471;42.736;23.346;2022-10-13T03:07:10;96246.03;;;7.41;100.00
20624;BME280;10471;42.736;23.346;2022-10-13T03:09:35;96239.78;;;7.42;100.00
20624;BME280;10471;42.736;23.346;2022-10-13T03:12:01;96245.59;;;7.44;100.00
20624;BME280;10471;42.736;23.346;2022-10-13T03:14:26;96242.97;;;7.44;100.00
20624;BME280;10471;42.736;23.346;2022-10-13T03:16:52;96246.53;;;7.38;100.00
20624;BME280;10471;42.736;23.346;2022-10-13T03:19:17;96243.91;;;7.38;100.00
20624;BME280;10471;42.736;23.346;2022-10-13T03:21:43;96244.59;;;7.33;100.00
20624;BME280;10471;42.736;23.346;2022-10-13T03:24:08;96236.63;;;7.28;100.00
20624;BME280;10471;42.736;23.346;2022-10-13T03:26:33;96251.00;;;7.26;100.00
20624;BME280;10471;42.736;23.346;2022-10-13T03:28:59;96255.66;;;7.24;100.00
20624;BME280;10471;42.736;23.346;2022-10-13T03:31:25;96248.03;;;7.22;100.00
20624;BME280;10471;42.736;23.346;2022-10-13T03:33:50;96248.84;;;7.23;100.00
20624;BME280;10471;42.736;23.346;2022-10-13T03:36:16;96250.41;;;7.24;100.00
20624;BME280;10471;42.736;23.346;2022-10-13T03:38:42;96245.66;;;7.21;100.00
20624;BME280;10471;42.736;23.346;2022-10-13T03:41:10;96249.19;;;7.15;100.00
20624;BME280;10471;42.736;23.346;2022-10-13T03:43:36;96242.25;;;7.09;100.00
20624;BME280;10471;42.736;23.346;2022-10-13T03:46:03;96250.38;;;6.96;100.00
20624;BME280;10471;42.736;23.346;2022-10-13T03:48:29;96241.06;;;6.89;100.00
20624;BME280;10471;42.736;23.346;2022-10-13T03:50:55;96243.78;;;6.94;100.00
20624;BME280;10471;42.736;23.346;2022-10-13T03:53:21;96249.81;;;6.94;100.00
20624;BME280;10471;42.736;23.346;2022-10-13T03:55:54;96252.31;;;6.89;100.00
20624;BME280;10471;42.736;23.346;2022-10-13T03:58:21;96248.22;;;6.93;100.00
20624;BME280;10471;42.736;23.346;2022-10-13T04:00:47;96242.53;;;6.96;100.00
20624;BME280;10471;42.736;23.346;2022-10-13T04:03:13;96247.28;;;6.99;100.00
20624;BME280;10471;42.736;23.346;2022-10-13T04:05:38;96248.41;;;7.03;100.00
20624;BME280;10471;42.736;23.346;2022-10-13T04:08:04;96244.44;;;7.01;100.00
20624;BME280;10471;42.736;23.346;2022-10-13T04:10:30;96240.25;;;7.00;100.00
20624;BME280;10471;42.736;23.346;2022-10-13T04:12:55;96235.78;;;7.00;100.00
20624;BME280;10471;42.736;23.346;2022-10-13T04:15:21;96231.69;;;7.04;100.00
20624;BME280;10471;42.736;23.346;2022-10-13T04:17:46;96227.00;;;7.06;100.00
20624;BME280;10471;42.736;23.346;2022-10-13T04:20:11;96229.72;;;7.11;100.00
20624;BME280;10471;42.736;23.346;2022-10-13T04:22:37;96237.69;;;7.16;100.00
20624;BME280;10471;42.736;23.346;2022-10-13T04:25:03;96246.13;;;7.18;100.00
20624;BME280;10471;42.736;23.346;2022-10-13T04:27:29;96237.22;;;7.19;100.00
20624;BME280;10471;42.736;23.346;2022-10-13T04:29:55;96243.81;;;7.21;100.00
20624;BME280;10471;42.736;23.346;2022-10-13T04:32:21;96240.28;;;7.27;100.00
20624;BME280;10471;42.736;23.346;2022-10-13T04:34:46;96243.22;;;7.31;100.00
20624;BME280;10471;42.736;23.346;2022-10-13T04:37:12;96241.72;;;7.35;100.00
20624;BME280;10471;42.736;23.346;2022-10-13T04:39:37;96239.19;;;7.40;100.00
20624;BME280;10471;42.736;23.346;2022-10-13T04:42:02;96235.09;;;7.44;100.00
20624;BME280;10471;42.736;23.346;2022-10-13T04:44:28;96232.56;;;7.49;100.00
20624;BME280;10471;42.736;23.346;2022-10-13T04:46:53;96229.47;;;7.52;100.00
20624;BME280;10471;42.736;23.346;2022-10-13T04:49:19;96229.56;;;7.57;100.00
20624;BME280;10471;42.736;23.346;2022-10-13T04:51:45;96227.03;;;7.62;100.00
20624;BME280;10471;42.736;23.346;2022-10-13T04:54:10;96231.69;;;7.60;100.00
20624;BME280;10471;42.736;23.346;2022-10-13T04:56:35;96239.13;;;7.63;100.00
20624;BME280;10471;42.736;23.346;2022-10-13T04:59:04;96241.50;;;7.64;100.00
20624;BME280;10471;42.736;23.346;2022-10-13T05:01:31;96242.44;;;7.58;100.00
20624;BME280;10471;42.736;23.346;2022-10-13T05:03:59;96244.81;;;7.60;100.00
20624;BME280;10471;42.736;23.346;2022-10-13T05:06:28;96249.38;;;7.64;100.00
20624;BME280;10471;42.736;23.346;2022-10-13T05:08:54;96257.09;;;7.71;100.00
20624;BME280;10471;42.736;23.346;2022-10-13T05:11:20;96249.53;;;7.74;100.00
20624;BME280;10471;42.736;23.346;2022-10-13T05:13:46;96258.69;;;7.72;100.00
20624;BME280;10471;42.736;23.346;2022-10-13T05:16:14;96258.69;;;7.72;100.00
20624;BME280;10471;42.736;23.346;2022-10-13T05:18:39;96259.34;;;7.79;100.00
20624;BME280;10471;42.736;23.346;2022-10-13T05:21:07;96263.97;;;7.88;100.00
20624;BME280;10471;42.736;23.346;2022-10-13T05:23:32;96258.41;;;7.84;100.00
20624;BME280;10471;42.736;23.346;2022-10-13T05:26:06;96262.63;;;7.85;100.00
20624;BME280;10471;42.736;23.346;2022-10-13T05:28:31;96262.22;;;7.93;100.00
20624;BME280;10471;42.736;23.346;2022-10-13T05:31:07;96261.66;;;7.91;100.00
20624;BME280;10471;42.736;23.346;2022-10-13T05:33:33;96271.78;;;7.99;100.00
20624;BME280;10471;42.736;23.346;2022-10-13T05:36:12;96279.91;;;7.98;100.00
20624;BME280;10471;42.736;23.346;2022-10-13T05:38:38;96277.97;;;7.93;100.00
20624;BME280;10471;42.736;23.346;2022-10-13T05:41:09;96287.53;;;7.99;100.00
20624;BME280;10471;42.736;23.346;2022-10-13T05:43:36;96285.78;;;8.05;100.00
20624;BME280;10471;42.736;23.346;2022-10-13T05:46:03;96279.94;;;8.14;100.00
20624;BME280;10471;42.736;23.346;2022-10-13T05:48:29;96283.91;;;8.17;100.00
20624;BME280;10471;42.736;23.346;2022-10-13T05:50:56;96296.03;;;8.18;100.00
20624;BME280;10471;42.736;23.346;2022-10-13T05:53:24;96292.66;;;8.22;100.00
20624;BME280;10471;42.736;23.346;2022-10-13T05:55:52;96299.69;;;8.33;100.00
20624;BME280;10471;42.736;23.346;2022-10-13T05:58:19;96298.72;;;8.39;100.00
20624;BME280;10471;42.736;23.346;2022-10-13T06:00:44;96300.41;;;8.45;100.00
20624;BME280;10471;42.736;23.346;2022-10-13T06:03:14;96298.81;;;8.44;100.00
20624;BME280;10471;42.736;23.346;2022-10-13T06:05:41;96295.06;;;8.40;100.00
20624;BME280;10471;42.736;23.346;2022-10-13T06:08:08;96298.28;;;8.42;100.00
20624;BME280;10471;42.736;23.346;2022-10-13T06:10:33;96288.38;;;8.49;100.00
20624;BME280;10471;42.736;23.346;2022-10-13T06:12:59;96296.84;;;8.51;100.00
20624;BME280;10471;42.736;23.346;2022-10-13T06:15:25;96299.13;;;8.64;100.00
20624;BME280;10471;42.736;23.346;2022-10-13T06:17:50;96293.72;;;8.70;100.00
20624;BME280;10471;42.736;23.346;2022-10-13T06:20:15;96304.00;;;8.72;100.00
20624;BME280;10471;42.736;23.346;2022-10-13T06:22:41;96298.25;;;8.75;100.00
20624;BME280;10471;42.736;23.346;2022-10-13T06:25:07;96294.94;;;8.63;100.00
20624;BME280;10471;42.736;23.346;2022-10-13T06:27:33;96298.72;;;8.88;100.00
20624;BME280;10471;42.736;23.346;2022-10-13T06:29:58;96294.59;;;8.76;100.00
20624;BME280;10471;42.736;23.346;2022-10-13T06:32:24;96298.38;;;9.01;100.00
20624;BME280;10471;42.736;23.346;2022-10-13T06:34:49;96300.25;;;9.22;100.00
20624;BME280;10471;42.736;23.346;2022-10-13T06:37:15;96285.19;;;9.39;100.00
20624;BME280;10471;42.736;23.346;2022-10-13T06:39:40;96290.72;;;9.59;100.00
20624;BME280;10471;42.736;23.346;2022-10-13T06:42:06;96294.78;;;9.71;100.00
20624;BME280;10471;42.736;23.346;2022-10-13T06:44:31;96292.38;;;9.70;100.00
20624;BME280;10471;42.736;23.346;2022-10-13T06:46:57;96287.63;;;9.67;100.00
20624;BME280;10471;42.736;23.346;2022-10-13T06:49:23;96288.25;;;9.74;100.00
20624;BME280;10471;42.736;23.346;2022-10-13T06:51:49;96284.84;;;9.78;100.00
20624;BME280;10471;42.736;23.346;2022-10-13T06:54:15;96278.91;;;9.87;100.00
20624;BME280;10471;42.736;23.346;2022-10-13T06:56:40;96271.63;;;9.94;100.00
20624;BME280;10471;42.736;23.346;2022-10-13T06:59:05;96274.94;;;10.11;100.00
20624;BME280;10471;42.736;23.346;2022-10-13T07:01:31;96279.81;;;10.24;100.00
20624;BME280;10471;42.736;23.346;2022-10-13T07:03:56;96269.66;;;10.38;100.00
20624;BME280;10471;42.736;23.346;2022-10-13T07:06:22;96275.06;;;10.52;100.00
20624;BME280;10471;42.736;23.346;2022-10-13T07:08:47;96272.22;;;10.64;100.00
20624;BME280;10471;42.736;23.346;2022-10-13T07:11:13;96275.47;;;10.71;100.00
20624;BME280;10471;42.736;23.346;2022-10-13T07:13:40;96271.00;;;10.76;100.00
20624;BME280;10471;42.736;23.346;2022-10-13T07:16:07;96275.81;;;10.84;100.00
20624;BME280;10471;42.736;23.346;2022-10-13T07:18:33;96273.25;;;10.94;100.00
20624;BME280;10471;42.736;23.346;2022-10-13T07:20:59;96282.78;;;11.00;100.00
20624;BME280;10471;42.736;23.346;2022-10-13T07:23:25;96286.47;;;11.04;100.00
20624;BME280;10471;42.736;23.346;2022-10-13T07:25:51;96283.88;;;11.09;100.00
20624;BME280;10471;42.736;23.346;2022-10-13T07:28:18;96286.56;;;11.19;100.00
20624;BME280;10471;42.736;23.346;2022-10-13T07:30:44;96284.78;;;11.29;100.00
20624;BME280;10471;42.736;23.346;2022-10-13T07:33:10;96277.72;;;11.45;100.00
20624;BME280;10471;42.736;23.346;2022-10-13T07:35:38;96285.22;;;11.58;100.00
20624;BME280;10471;42.736;23.346;2022-10-13T07:38:05;96277.59;;;11.66;100.00
20624;BME280;10471;42.736;23.346;2022-10-13T07:40:30;96282.56;;;11.53;100.00
20624;BME280;10471;42.736;23.346;2022-10-13T07:42:56;96286.56;;;11.65;100.00
20624;BME280;10471;42.736;23.346;2022-10-13T07:45:21;96284.22;;;11.74;100.00
20624;BME280;10471;42.736;23.346;2022-10-13T07:47:47;96276.31;;;11.83;100.00
20624;BME280;10471;42.736;23.346;2022-10-13T07:50:12;96277.94;;;11.99;100.00
20624;BME280;10471;42.736;23.346;2022-10-13T07:52:38;96281.38;;;12.00;100.00
20624;BME280;10471;42.736;23.346;2022-10-13T07:55:04;96282.69;;;12.07;100.00
20624;BME280;10471;42.736;23.346;2022-10-13T07:57:29;96285.63;;;12.11;100.00
20624;BME280;10471;42.736;23.346;2022-10-13T07:59:55;96282.47;;;12.24;100.00
20624;BME280;10471;42.736;23.346;2022-10-13T08:02:20;96273.75;;;12.38;100.00
20624;BME280;10471;42.736;23.346;2022-10-13T08:04:46;96276.41;;;12.53;100.00
20624;BME280;10471;42.736;23.346;2022-10-13T08:07:11;96269.78;;;12.65;100.00
20624;BME280;10471;42.736;23.346;2022-10-13T08:09:37;96270.03;;;12.74;100.00
20624;BME280;10471;42.736;23.346;2022-10-13T08:12:02;96276.41;;;12.83;100.00
20624;BME280;10471;42.736;23.346;2022-10-13T08:14:29;96265.03;;;12.87;100.00
20624;BME280;10471;42.736;23.346;2022-10-13T08:16:56;96274.81;;;13.02;100.00
20624;BME280;10471;42.736;23.346;2022-10-13T08:19:21;96269.75;;;13.15;100.00
20624;BME280;10471;42.736;23.346;2022-10-13T08:21:48;96271.31;;;13.31;100.00
20624;BME280;10471;42.736;23.346;2022-10-13T08:24:14;96271.56;;;13.39;100.00
20624;BME280;10471;42.736;23.346;2022-10-13T08:26:41;96281.09;;;13.25;100.00
20624;BME280;10471;42.736;23.346;2022-10-13T08:29:06;96265.19;;;13.35;100.00
20624;BME280;10471;42.736;23.346;2022-10-13T08:31:32;96264.63;;;13.48;100.00
20624;BME280;10471;42.736;23.346;2022-10-13T08:33:57;96261.41;;;13.56;100.00
20624;BME280;10471;42.736;23.346;2022-10-13T08:36:23;96255.78;;;13.73;100.00
20624;BME280;10471;42.736;23.346;2022-10-13T08:38:49;96252.78;;;13.89;100.00
20624;BME280;10471;42.736;23.346;2022-10-13T08:41:16;96251.41;;;13.96;100.00
20624;BME280;10471;42.736;23.346;2022-10-13T08:43:48;96248.41;;;14.08;100.00
20624;BME280;10471;42.736;23.346;2022-10-13T08:46:29;96244.88;;;14.27;100.00
20624;BME280;10471;42.736;23.346;2022-10-13T08:48:59;96242.63;;;14.44;100.00
20624;BME280;10471;42.736;23.346;2022-10-13T08:51:26;96240.72;;;14.49;100.00
20624;BME280;10471;42.736;23.346;2022-10-13T08:53:52;96242.22;;;14.60;100.00
20624;BME280;10471;42.736;23.346;2022-10-13T08:56:24;96234.44;;;14.69;100.00
20624;BME280;10471;42.736;23.346;2022-10-13T08:58:51;96231.44;;;14.80;100.00
20624;BME280;10471;42.736;23.346;2022-10-13T09:01:29;96224.69;;;14.93;100.00
20624;BME280;10471;42.736;23.346;2022-10-13T09:03:56;96223.47;;;15.08;100.00
20624;BME280;10471;42.736;23.346;2022-10-13T09:06:32;96218.81;;;15.19;100.00
20624;BME280;10471;42.736;23.346;2022-10-13T09:09:03;96217.59;;;15.35;100.00
20624;BME280;10471;42.736;23.346;2022-10-13T09:11:33;96222.03;;;15.44;100.00
20624;BME280;10471;42.736;23.346;2022-10-13T09:14:03;96207.31;;;15.52;100.00
20624;BME280;10471;42.736;23.346;2022-10-13T09:16:52;96221.25;;;15.62;100.00
20624;BME280;10471;42.736;23.346;2022-10-13T09:19:28;96203.31;;;15.73;100.00
20624;BME280;10471;42.736;23.346;2022-10-13T09:21:57;96205.91;;;15.77;100.00
20624;BME280;10471;42.736;23.346;2022-10-13T09:24:25;96203.72;;;15.79;100.00
20624;BME280;10471;42.736;23.346;2022-10-13T09:27:03;96198.78;;;15.91;100.00
20624;BME280;10471;42.736;23.346;2022-10-13T09:29:29;96189.44;;;15.94;100.00
20624;BME280;10471;42.736;23.346;2022-10-13T09:32:19;96182.69;;;15.83;100.00
20624;BME280;10471;42.736;23.346;2022-10-13T09:34:46;96179.72;;;16.03;100.00
20624;BME280;10471;42.736;23.346;2022-10-13T09:37:20;96176.56;;;16.19;100.00
20624;BME280;10471;42.736;23.346;2022-10-13T09:39:59;96176.84;;;16.36;100.00
20624;BME280;10471;42.736;23.346;2022-10-13T09:42:27;96187.16;;;16.56;100.00
20624;BME280;10471;42.736;23.346;2022-10-13T09:45:01;96181.59;;;16.71;100.00
20624;BME280;10471;42.736;23.346;2022-10-13T09:47:33;96182.28;;;16.90;100.00
20624;BME280;10471;42.736;23.346;2022-10-13T09:50:15;96178.47;;;16.96;100.00
20624;BME280;10471;42.736;23.346;2022-10-13T09:52:42;96178.25;;;17.06;100.00
20624;BME280;10471;42.736;23.346;2022-10-13T09:57:53;96172.66;;;17.20;100.00
20624;BME280;10471;42.736;23.346;2022-10-13T10:00:22;96179.56;;;17.21;100.00
20624;BME280;10471;42.736;23.346;2022-10-13T10:05:50;96172.66;;;17.47;96.13
20624;BME280;10471;42.736;23.346;2022-10-13T10:10:44;96150.00;;;17.72;97.29
20624;BME280;10471;42.736;23.346;2022-10-13T10:13:12;96155.00;;;17.86;97.29
20624;BME280;10471;42.736;23.346;2022-10-13T10:18:48;96138.72;;;18.10;93.56
20624;BME280;10471;42.736;23.346;2022-10-13T10:23:51;96133.00;;;18.38;93.96
20624;BME280;10471;42.736;23.346;2022-10-13T10:26:22;96130.75;;;18.53;91.31
20624;BME280;10471;42.736;23.346;2022-10-13T10:29:09;96134.09;;;18.67;90.61
20624;BME280;10471;42.736;23.346;2022-10-13T10:37:13;96118.22;;;19.01;82.64
20624;BME280;10471;42.736;23.346;2022-10-13T10:39:44;96116.66;;;19.00;79.01
20624;BME280;10471;42.736;23.346;2022-10-13T10:45:00;96102.72;;;19.11;82.63
20624;BME280;10471;42.736;23.346;2022-10-13T10:47:41;96104.03;;;19.31;82.17
20624;BME280;10471;42.736;23.346;2022-10-13T10:50:14;96090.06;;;19.51;79.97
20624;BME280;10471;42.736;23.346;2022-10-13T10:52:59;96094.81;;;19.71;78.31
20624;BME280;10471;42.736;23.346;2022-10-13T10:55:34;96085.56;;;19.93;74.99
20624;BME280;10471;42.736;23.346;2022-10-13T11:00:38;96074.38;;;20.08;70.96
20624;BME280;10471;42.736;23.346;2022-10-13T11:03:12;96072.28;;;20.22;71.73
20624;BME280;10471;42.736;23.346;2022-10-13T11:08:40;96076.88;;;20.13;67.87
20624;BME280;10471;42.736;23.346;2022-10-13T11:13:52;96058.88;;;20.39;66.55
20624;BME280;10471;42.736;23.346;2022-10-13T11:27:53;96045.72;;;20.00;67.25
20624;BME280;10471;42.736;23.346;2022-10-13T11:36:48;96029.41;;;20.47;61.70
20624;BME280;10471;42.736;23.346;2022-10-13T11:42:01;96026.44;;;20.32;62.05
20624;BME280;10471;42.736;23.346;2022-10-13T11:49:47;96011.66;;;20.18;63.22
20624;BME280;10471;42.736;23.346;2022-10-13T11:52:38;96017.66;;;20.23;59.82
20624;BME280;10471;42.736;23.346;2022-10-13T11:55:16;96003.38;;;20.48;59.46
20624;BME280;10471;42.736;23.346;2022-10-13T11:57:42;96006.44;;;20.67;58.66
20624;BME280;10471;42.736;23.346;2022-10-13T12:00:17;96008.34;;;20.75;58.32
20624;BME280;10471;42.736;23.346;2022-10-13T12:02:50;96004.38;;;20.72;54.88
20624;BME280;10471;42.736;23.346;2022-10-13T12:05:27;96000.22;;;20.46;53.93
20624;BME280;10471;42.736;23.346;2022-10-13T12:07:59;95993.22;;;20.62;55.54
20624;BME280;10471;42.736;23.346;2022-10-13T12:10:30;96003.91;;;20.79;56.06
20624;BME280;10471;42.736;23.346;2022-10-13T12:12:57;95997.44;;;20.80;56.40
20624;BME280;10471;42.736;23.346;2022-10-13T12:15:35;95991.31;;;20.71;55.77
20624;BME280;10471;42.736;23.346;2022-10-13T12:18:18;95987.06;;;20.99;54.24
20624;BME280;10471;42.736;23.346;2022-10-13T12:20:51;95987.88;;;21.19;55.03
20624;BME280;10471;42.736;23.346;2022-10-13T12:23:17;95992.56;;;21.31;55.78
20624;BME280;10471;42.736;23.346;2022-10-13T12:25:45;95984.22;;;21.44;52.98
20624;BME280;10471;42.736;23.346;2022-10-13T12:28:16;95981.09;;;21.63;52.12
20624;BME280;10471;42.736;23.346;2022-10-13T12:30:50;95985.69;;;21.62;51.43
20624;BME280;10471;42.736;23.346;2022-10-13T12:33:32;95989.75;;;21.68;53.13
20624;BME280;10471;42.736;23.346;2022-10-13T12:36:16;95987.91;;;21.60;51.84
20624;BME280;10471;42.736;23.346;2022-10-13T12:38:47;95987.41;;;21.67;51.68
20624;BME280;10471;42.736;23.346;2022-10-13T12:41:15;95978.59;;;21.78;51.93
20624;BME280;10471;42.736;23.346;2022-10-13T12:43:42;95975.84;;;21.86;51.29
20624;BME280;10471;42.736;23.346;2022-10-13T12:46:08;95978.78;;;22.05;52.34
20624;BME280;10471;42.736;23.346;2022-10-13T12:48:35;95973.13;;;22.19;49.38
20624;BME280;10471;42.736;23.346;2022-10-13T12:51:18;95962.47;;;22.43;48.61
20624;BME280;10471;42.736;23.346;2022-10-13T12:53:47;95955.41;;;22.50;49.60
20624;BME280;10471;42.736;23.346;2022-10-13T12:56:32;95963.47;;;22.50;48.41
20624;BME280;10471;42.736;23.346;2022-10-13T12:58:58;95959.84;;;22.46;49.12
20624;BME280;10471;42.736;23.346;2022-10-13T13:01:29;95956.16;;;22.39;49.09
20624;BME280;10471;42.736;23.346;2022-10-13T13:03:57;95959.19;;;22.37;49.78
20624;BME280;10471;42.736;23.346;2022-10-13T13:06:30;95951.91;;;22.49;50.26
20624;BME280;10471;42.736;23.346;2022-10-13T13:09:19;95960.59;;;22.11;48.47
20624;BME280;10471;42.736;23.346;2022-10-13T13:11:46;95945.97;;;22.32;48.96
20624;BME280;10471;42.736;23.346;2022-10-13T13:14:45;95938.81;;;22.48;49.35
20624;BME280;10471;42.736;23.346;2022-10-13T13:19:43;95938.06;;;22.47;47.15
20624;BME280;10471;42.736;23.346;2022-10-13T13:22:09;95941.50;;;22.36;49.12
20624;BME280;10471;42.736;23.346;2022-10-13T13:24:35;95941.16;;;22.49;49.69
20624;BME280;10471;42.736;23.346;2022-10-13T13:27:10;95936.34;;;22.43;47.25
20624;BME280;10471;42.736;23.346;2022-10-13T13:29:39;95925.16;;;22.53;49.59
20624;BME280;10471;42.736;23.346;2022-10-13T13:32:04;95925.94;;;22.53;48.28
20624;BME280;10471;42.736;23.346;2022-10-13T13:34:29;95936.56;;;22.62;49.73
20624;BME280;10471;42.736;23.346;2022-10-13T13:36:55;95938.50;;;22.61;49.80
20624;BME280;10471;42.736;23.346;2022-10-13T13:39:20;95934.47;;;22.55;48.74
20624;BME280;10471;42.736;23.346;2022-10-13T13:41:45;95939.16;;;22.58;47.78
20624;BME280;10471;42.736;23.346;2022-10-13T13:44:11;95933.56;;;22.51;48.10
20624;BME280;10471;42.736;23.346;2022-10-13T13:46:36;95938.47;;;22.49;49.55
20624;BME280;10471;42.736;23.346;2022-10-13T13:49:02;95934.47;;;22.55;48.83
20624;BME280;10471;42.736;23.346;2022-10-13T13:51:28;95927.06;;;22.64;47.11
20624;BME280;10471;42.736;23.346;2022-10-13T13:53:53;95924.16;;;22.57;46.53
20624;BME280;10471;42.736;23.346;2022-10-13T13:56:19;95927.50;;;22.54;47.85
20624;BME280;10471;42.736;23.346;2022-10-13T13:58:45;95920.34;;;22.46;46.83
20624;BME280;10471;42.736;23.346;2022-10-13T14:01:12;95925.03;;;22.49;46.71
20624;BME280;10471;42.736;23.346;2022-10-13T14:03:38;95928.06;;;22.48;46.67
20624;BME280;10471;42.736;23.346;2022-10-13T14:06:04;95918.63;;;22.18;46.67
20624;BME280;10471;42.736;23.346;2022-10-13T14:08:33;95924.19;;;22.01;48.25
20624;BME280;10471;42.736;23.346;2022-10-13T14:10:59;95931.44;;;21.89;49.55
20624;BME280;10471;42.736;23.346;2022-10-13T14:13:25;95918.22;;;21.84;47.76